Time;durP1;ratioP1;P1;durP2;ratioP2;P2;SDS_P1;SDS_P2;PMS_P1;PMS_P2;Temp;Humidity;BMP_temperature;BMP_pressure;BME280_temperature;BME280_humidity;BME280_pressure;Samples;Min_cycle;Max_cycle;Signal;HPM_P1;HPM_P2
2022/05/28 05:54:38;;;;;;;5.22;2.58;;;;;;;;;;5075339;24;20112;-66
2022/05/28 05:57:05;;;;;;;5.50;2.60;;;;;;;;;;4861326;29;20036;-67
2022/05/28 05:59:31;;;;;;;7.10;2.70;;;;;;;;;;4880239;29;20080;-66
2022/05/28 06:01:57;;;;;;;5.63;2.38;;;;;;;;;;4879890;29;20068;-66
2022/05/28 06:04:27;;;;;;;4.97;2.50;;;;;;;;;;4880024;29;20029;-71
2022/05/28 06:06:53;;;;;;;5.07;2.75;;;;;;;;;;4878770;29;20029;-72
2022/05/28 06:09:19;;;;;;;4.68;3.17;;;;;;;;;;4869728;29;20040;-64
2022/05/28 06:11:45;;;;;;;5.65;2.60;;;;;;;;;;4869724;29;20101;-66
2022/05/28 06:14:11;;;;;;;4.15;2.17;;;;;;;;;;4868352;29;20070;-65
2022/05/28 06:16:37;;;;;;;6.35;2.80;;;;;;;;;;4853136;29;20041;-67
2022/05/28 06:19:04;;;;;;;7.72;2.78;;;;;;;;;;4869408;29;20037;-66
2022/05/28 06:21:30;;;;;;;10.25;2.83;;;;;;;;;;4868456;29;20026;-70
2022/05/28 06:23:56;;;;;;;4.13;2.50;;;;;;;;;;4870071;29;20061;-69
2022/05/28 06:26:22;;;;;;;5.38;2.20;;;;;;;;;;4865317;29;20665;-70
2022/05/28 06:28:48;;;;;;;7.60;2.95;;;;;;;;;;4869860;29;20244;-67
2022/05/28 06:31:15;;;;;;;4.65;2.30;;;;;;;;;;4868333;29;20025;-66
2022/05/28 06:33:41;;;;;;;5.15;2.75;;;;;;;;;;4869239;29;20029;-67
2022/05/28 06:36:08;;;;;;;11.35;3.38;;;;;;;;;;4868209;29;20020;-73
2022/05/28 06:38:35;;;;;;;5.15;2.60;;;;;;;;;;4867975;29;20548;-66
2022/05/28 06:41:01;;;;;;;4.88;2.75;;;;;;;;;;4869592;29;20085;-66
2022/05/28 06:43:28;;;;;;;6.15;2.78;;;;;;;;;;4871998;29;20051;-66
2022/05/28 06:45:54;;;;;;;10.27;3.03;;;;;;;;;;4870130;29;20033;-69
2022/05/28 06:48:20;;;;;;;8.27;3.25;;;;;;;;;;4860406;29;20030;-66
2022/05/28 06:51:02;;;;;;;5.25;2.55;;;;;;;;;;4860392;29;20426;-67
2022/05/28 06:53:32;;;;;;;5.63;3.10;;;;;;;;;;4862435;29;20132;-66
2022/05/28 06:55:58;;;;;;;4.57;3.00;;;;;;;;;;4870699;29;20140;-67
2022/05/28 06:58:24;;;;;;;5.80;3.03;;;;;;;;;;4874834;29;20396;-69
2022/05/28 07:00:50;;;;;;;6.22;3.40;;;;;;;;;;4871601;29;20025;-73
2022/05/28 07:03:18;;;;;;;6.18;2.90;;;;;;;;;;4868696;29;20037;-66
2022/05/28 07:05:44;;;;;;;6.25;3.00;;;;;;;;;;4864267;29;20033;-67
2022/05/28 07:08:10;;;;;;;8.35;3.33;;;;;;;;;;4860063;29;20037;-63
2022/05/28 07:10:39;;;;;;;10.50;2.72;;;;;;;;;;4860123;29;20025;-62
2022/05/28 07:13:05;;;;;;;10.93;3.75;;;;;;;;;;4859744;29;20037;-62
2022/05/28 07:15:32;;;;;;;7.80;3.95;;;;;;;;;;4867498;29;20039;-62
2022/05/28 07:17:58;;;;;;;6.63;3.70;;;;;;;;;;4870959;29;20128;-65
2022/05/28 07:20:24;;;;;;;9.85;3.53;;;;;;;;;;4866976;29;20489;-66
2022/05/28 07:22:50;;;;;;;9.23;4.25;;;;;;;;;;4868004;29;20041;-66
2022/05/28 07:25:18;;;;;;;7.95;4.22;;;;;;;;;;4874586;29;20049;-62
2022/05/28 07:27:45;;;;;;;4.68;3.47;;;;;;;;;;4867959;29;20037;-64
2022/05/28 07:30:11;;;;;;;6.78;3.50;;;;;;;;;;4863337;29;20059;-64
2022/05/28 07:32:37;;;;;;;9.02;3.55;;;;;;;;;;4859481;29;20504;-61
2022/05/28 07:35:03;;;;;;;7.97;4.30;;;;;;;;;;4866971;29;20081;-61
2022/05/28 07:37:30;;;;;;;6.55;4.28;;;;;;;;;;4869021;29;20507;-62
2022/05/28 07:39:56;;;;;;;7.60;3.72;;;;;;;;;;4868816;29;20089;-62
2022/05/28 07:42:22;;;;;;;6.25;3.38;;;;;;;;;;4866232;29;20033;-62
2022/05/28 07:44:48;;;;;;;5.88;3.33;;;;;;;;;;4871173;29;20043;-61
2022/05/28 07:47:14;;;;;;;4.97;2.80;;;;;;;;;;4878098;29;20652;-65
2022/05/28 07:49:40;;;;;;;5.28;3.15;;;;;;;;;;4877912;29;20111;-61
2022/05/28 07:52:07;;;;;;;5.97;2.50;;;;;;;;;;4878093;29;20032;-64
2022/05/28 07:54:33;;;;;;;5.90;2.80;;;;;;;;;;4877701;29;20051;-61
2022/05/28 07:56:59;;;;;;;4.90;3.25;;;;;;;;;;4878119;29;20045;-61
2022/05/28 07:59:25;;;;;;;4.88;2.70;;;;;;;;;;4877879;29;20071;-61
2022/05/28 08:01:51;;;;;;;6.10;2.83;;;;;;;;;;4878086;29;20086;-60
2022/05/28 08:04:17;;;;;;;7.82;2.65;;;;;;;;;;4877922;29;20029;-62
2022/05/28 08:06:44;;;;;;;6.70;3.00;;;;;;;;;;4877520;29;20021;-63
2022/05/28 08:09:11;;;;;;;4.97;3.40;;;;;;;;;;4877587;29;20025;-62
2022/05/28 08:11:37;;;;;;;7.38;3.63;;;;;;;;;;4874323;29;20022;-61
2022/05/28 08:14:04;;;;;;;9.45;3.63;;;;;;;;;;4865840;29;20065;-60
2022/05/28 08:16:30;;;;;;;7.68;3.58;;;;;;;;;;4866403;29;20040;-61
2022/05/28 08:18:56;;;;;;;6.82;3.53;;;;;;;;;;4865018;29;20041;-61
2022/05/28 08:24:07;;;;;;;5.07;3.33;;;;;;;;;;4870815;29;20048;-62
2022/05/28 08:26:34;;;;;;;6.07;3.75;;;;;;;;;;4862179;29;20034;-62
2022/05/28 08:29:00;;;;;;;6.43;3.40;;;;;;;;;;4859278;29;20038;-62
2022/05/28 08:31:27;;;;;;;5.07;2.92;;;;;;;;;;4861410;29;20022;-61
2022/05/28 08:33:53;;;;;;;6.75;2.47;;;;;;;;;;4858815;29;20068;-61
2022/05/28 08:36:19;;;;;;;5.75;3.03;;;;;;;;;;4858885;29;20037;-62
2022/05/28 08:38:46;;;;;;;8.35;3.47;;;;;;;;;;4863635;29;20056;-62
2022/05/28 08:41:12;;;;;;;5.53;3.28;;;;;;;;;;4877364;29;20513;-61
2022/05/28 08:43:47;;;;;;;4.97;3.05;;;;;;;;;;4870595;29;20143;-63
2022/05/28 08:46:14;;;;;;;7.20;2.88;;;;;;;;;;4867288;29;20025;-63
2022/05/28 08:48:45;;;;;;;4.28;3.17;;;;;;;;;;4865505;29;20038;-62
2022/05/28 08:51:31;;;;;;;5.25;3.03;;;;;;;;;;4866982;29;20033;-63
2022/05/28 08:54:02;;;;;;;6.68;3.10;;;;;;;;;;4866549;29;20053;-60
2022/05/28 08:56:29;;;;;;;6.13;3.60;;;;;;;;;;4866449;29;20030;-63
2022/05/28 08:59:04;;;;;;;4.82;3.33;;;;;;;;;;4865478;29;20035;-64
2022/05/28 09:01:32;;;;;;;5.50;3.90;;;;;;;;;;4866596;29;20474;-64
2022/05/28 09:04:01;;;;;;;5.07;3.20;;;;;;;;;;4865689;29;20132;-63
2022/05/28 09:06:31;;;;;;;4.68;3.40;;;;;;;;;;4867112;29;20100;-65
2022/05/28 09:08:57;;;;;;;4.13;2.90;;;;;;;;;;4867439;29;20117;-62
2022/05/28 09:11:42;;;;;;;4.32;2.70;;;;;;;;;;4868040;29;20025;-64
2022/05/28 09:14:28;;;;;;;6.45;2.67;;;;;;;;;;4871014;29;20116;-63
2022/05/28 09:17:18;;;;;;;4.38;2.88;;;;;;;;;;4865284;29;20036;-63
2022/05/28 09:19:45;;;;;;;6.22;3.00;;;;;;;;;;4769741;30;20085;-61
2022/05/28 09:22:11;;;;;;;5.00;2.90;;;;;;;;;;4772610;30;20048;-59
2022/05/28 09:24:38;;;;;;;7.53;3.72;;;;;;;;;;4764777;30;20054;-61
2022/05/28 09:27:13;;;;;;;7.35;3.75;;;;;;;;;;4750229;30;20412;-59
2022/05/28 09:29:54;;;;;;;7.70;3.70;;;;;;;;;;4765137;30;20055;-61
2022/05/28 09:32:23;;;;;;;8.40;3.97;;;;;;;;;;4764988;30;20660;-61
2022/05/28 09:34:52;;;;;;;6.03;3.95;;;;;;;;;;4765010;30;20047;-61
2022/05/28 09:37:36;;;;;;;5.57;3.67;;;;;;;;;;4764970;30;20052;-59
2022/05/28 09:40:07;;;;;;;11.50;4.65;;;;;;;;;;4764894;30;20047;-61
2022/05/28 09:42:42;;;;;;;4.88;3.53;;;;;;;;;;4764957;30;20036;-61
2022/05/28 09:45:09;;;;;;;7.70;4.18;;;;;;;;;;4765064;30;20047;-62
2022/05/28 09:47:52;;;;;;;6.32;3.55;;;;;;;;;;4764955;30;20501;-63
2022/05/28 09:50:23;;;;;;;6.43;3.80;;;;;;;;;;4764961;30;20102;-63
2022/05/28 09:55:51;;;;;;;5.88;3.40;;;;;;;;;;4770243;29;20424;-64
2022/05/28 09:58:20;;;;;;;6.03;3.33;;;;;;;;;;4839474;29;20046;-62
2022/05/28 10:00:48;;;;;;;6.85;3.60;;;;;;;;;;4839198;29;20037;-63
2022/05/28 10:06:11;;;;;;;7.07;2.63;;;;;;;;;;4839283;29;20045;-63
2022/05/28 10:08:37;;;;;;;5.05;2.53;;;;;;;;;;4838852;29;20026;-63
2022/05/28 10:11:05;;;;;;;4.93;2.63;;;;;;;;;;4841847;29;20030;-63
2022/05/28 10:13:42;;;;;;;13.80;4.75;;;;;;;;;;4842492;29;20022;-62
2022/05/28 10:16:08;;;;;;;4.43;2.30;;;;;;;;;;4842523;29;20038;-62
2022/05/28 10:18:52;;;;;;;6.18;3.15;;;;;;;;;;4842236;29;20038;-62
2022/05/28 10:21:20;;;;;;;4.22;1.92;;;;;;;;;;4842492;29;20747;-63
2022/05/28 10:23:54;;;;;;;2.45;1.77;;;;;;;;;;4842232;29;20041;-63
2022/05/28 10:26:22;;;;;;;3.85;1.90;;;;;;;;;;4842547;29;20081;-63
2022/05/28 10:28:49;;;;;;;2.35;1.90;;;;;;;;;;4842452;29;20387;-62
2022/05/28 10:31:23;;;;;;;3.42;1.88;;;;;;;;;;4842647;29;20026;-63
2022/05/28 10:33:49;;;;;;;3.25;1.70;;;;;;;;;;4842680;29;20148;-65
2022/05/28 10:36:20;;;;;;;3.03;1.83;;;;;;;;;;4842587;29;20034;-62
2022/05/28 10:38:46;;;;;;;4.28;2.00;;;;;;;;;;4842109;29;20563;-63
2022/05/28 10:41:15;;;;;;;3.63;1.80;;;;;;;;;;4842447;29;20036;-62
2022/05/28 10:43:41;;;;;;;2.28;1.83;;;;;;;;;;4842218;29;20036;-62
2022/05/28 10:46:19;;;;;;;3.70;1.70;;;;;;;;;;4842491;29;20053;-61
2022/05/28 10:48:58;;;;;;;4.07;2.00;;;;;;;;;;4842233;29;20391;-61
2022/05/28 10:51:44;;;;;;;2.60;1.45;;;;;;;;;;4842376;29;20030;-61
2022/05/28 10:54:29;;;;;;;3.05;1.48;;;;;;;;;;4840068;29;20059;-63
2022/05/28 10:56:55;;;;;;;5.38;1.75;;;;;;;;;;4860594;29;20038;-63
2022/05/28 10:59:28;;;;;;;3.05;1.38;;;;;;;;;;4860460;29;20394;-60
2022/05/28 11:02:06;;;;;;;1.98;1.38;;;;;;;;;;4860355;29;20061;-60
2022/05/28 11:04:41;;;;;;;3.60;1.52;;;;;;;;;;4859441;29;20033;-61
2022/05/28 11:07:07;;;;;;;2.78;1.60;;;;;;;;;;4859997;29;20040;-62
2022/05/28 11:09:56;;;;;;;2.83;1.55;;;;;;;;;;4859800;29;20025;-61
2022/05/28 11:12:25;;;;;;;4.28;1.65;;;;;;;;;;4859966;29;20040;-61
2022/05/28 11:15:12;;;;;;;3.50;1.90;;;;;;;;;;4859535;29;20034;-62
2022/05/28 11:17:41;;;;;;;5.07;1.80;;;;;;;;;;4860092;29;20048;-65
2022/05/28 11:20:16;;;;;;;3.10;2.00;;;;;;;;;;4860183;29;20057;-60
2022/05/28 11:22:46;;;;;;;3.65;1.80;;;;;;;;;;4859405;29;20025;-64
2022/05/28 11:25:40;;;;;;;3.20;1.58;;;;;;;;;;4859957;29;20029;-61
2022/05/28 11:28:21;;;;;;;5.93;1.80;;;;;;;;;;4859980;29;20048;-65
2022/05/28 11:30:52;;;;;;;3.20;2.05;;;;;;;;;;4860155;29;20053;-61
2022/05/28 11:33:18;;;;;;;5.47;2.10;;;;;;;;;;4859905;29;20034;-60
2022/05/28 11:35:50;;;;;;;3.95;2.13;;;;;;;;;;4859683;29;20029;-60
2022/05/28 11:38:31;;;;;;;2.08;1.13;;;;;;;;;;4858783;29;20124;-59
2022/05/28 11:41:03;;;;;;;3.13;1.92;;;;;;;;;;4859346;29;20371;-59
2022/05/28 11:43:40;;;;;;;3.38;2.00;;;;;;;;;;4859069;29;20033;-59
2022/05/28 11:46:25;;;;;;;3.03;1.55;;;;;;;;;;4859453;29;20033;-59
2022/05/28 11:51:58;;;;;;;4.25;1.30;;;;;;;;;;4859048;29;20049;-60
2022/05/28 11:54:33;;;;;;;4.35;1.65;;;;;;;;;;4858795;29;20068;-59
2022/05/28 11:57:01;;;;;;;2.72;1.73;;;;;;;;;;4858712;29;20124;-60
2022/05/28 11:59:28;;;;;;;2.97;1.60;;;;;;;;;;4858571;29;20371;-59
2022/05/28 12:01:59;;;;;;;4.05;2.28;;;;;;;;;;4859047;29;20040;-59
2022/05/28 12:04:25;;;;;;;3.40;1.80;;;;;;;;;;4858677;29;20029;-59
2022/05/28 12:07:02;;;;;;;4.10;1.73;;;;;;;;;;4858768;29;20116;-59
2022/05/28 12:09:29;;;;;;;2.95;1.67;;;;;;;;;;4858174;29;20040;-59
2022/05/28 12:12:13;;;;;;;3.22;1.40;;;;;;;;;;4858669;29;20022;-59
2022/05/28 12:14:41;;;;;;;5.30;2.17;;;;;;;;;;4858606;29;20393;-60
2022/05/28 12:17:10;;;;;;;2.90;1.70;;;;;;;;;;4858617;29;20029;-63
2022/05/28 12:19:47;;;;;;;4.47;2.17;;;;;;;;;;4858629;29;20069;-60
2022/05/28 12:22:25;;;;;;;7.20;2.03;;;;;;;;;;4858173;29;20100;-60
2022/05/28 12:24:59;;;;;;;4.20;1.73;;;;;;;;;;4858398;29;20047;-61
2022/05/28 12:27:36;;;;;;;2.97;1.67;;;;;;;;;;4858681;29;20030;-60
2022/05/28 12:30:02;;;;;;;3.65;1.77;;;;;;;;;;4858775;29;20053;-60
2022/05/28 12:32:45;;;;;;;3.47;1.80;;;;;;;;;;4858428;29;20033;-60
2022/05/28 12:35:20;;;;;;;2.33;1.50;;;;;;;;;;4858396;29;20033;-59
2022/05/28 12:37:51;;;;;;;3.47;1.58;;;;;;;;;;4858289;29;20033;-60
2022/05/28 12:40:36;;;;;;;4.38;2.10;;;;;;;;;;4858531;29;20038;-59
2022/05/28 12:43:13;;;;;;;4.43;2.90;;;;;;;;;;4858615;29;20045;-59
2022/05/28 12:45:40;;;;;;;5.07;1.75;;;;;;;;;;4858590;29;20026;-60
2022/05/28 12:48:15;;;;;;;3.83;2.53;;;;;;;;;;4858757;29;20033;-59
2022/05/28 12:50:44;;;;;;;4.93;2.47;;;;;;;;;;4858606;29;20102;-61
2022/05/28 12:53:20;;;;;;;5.72;2.53;;;;;;;;;;4858068;29;20049;-61
2022/05/28 12:55:46;;;;;;;4.93;2.97;;;;;;;;;;4858319;29;20037;-61
2022/05/28 12:58:25;;;;;;;6.10;3.55;;;;;;;;;;4858641;29;20545;-61
2022/05/28 13:00:56;;;;;;;6.35;3.40;;;;;;;;;;4858672;29;20030;-61
2022/05/28 13:03:23;;;;;;;8.25;3.40;;;;;;;;;;4858326;29;20029;-61
2022/05/28 13:05:52;;;;;;;7.68;3.25;;;;;;;;;;4858247;29;20033;-59
2022/05/28 13:08:26;;;;;;;6.82;2.85;;;;;;;;;;4858348;29;20576;-59
2022/05/28 13:11:18;;;;;;;4.78;3.10;;;;;;;;;;4857907;29;20037;-60
2022/05/28 13:13:44;;;;;;;;;;;;;;;;;;4764940;30;20076;-60
2022/05/28 13:16:13;;;;;;;6.00;3.45;;;;;;;;;;4765010;30;19953;-61
2022/05/28 13:18:53;;;;;;;6.00;3.25;;;;;;;;;;4764486;30;20056;-59
2022/05/28 13:21:29;;;;;;;5.82;3.28;;;;;;;;;;4764832;30;20131;-59
2022/05/28 13:23:57;;;;;;;5.47;3.35;;;;;;;;;;4764079;30;20087;-60
2022/05/28 13:26:43;;;;;;;5.97;3.03;;;;;;;;;;4764119;30;20047;-60
2022/05/28 13:29:12;;;;;;;7.80;3.30;;;;;;;;;;4764764;30;20027;-60
2022/05/28 13:31:40;;;;;;;4.60;3.08;;;;;;;;;;4764506;29;20044;-60
2022/05/28 13:34:18;;;;;;;8.43;3.88;;;;;;;;;;4764703;30;20035;-61
2022/05/28 13:36:44;;;;;;;6.65;3.38;;;;;;;;;;4764592;30;20027;-62
2022/05/28 13:39:10;;;;;;;6.03;3.28;;;;;;;;;;4764744;30;20044;-62
2022/05/28 13:41:41;;;;;;;7.03;2.97;;;;;;;;;;4764822;30;20039;-61
2022/05/28 13:44:10;;;;;;;6.55;3.13;;;;;;;;;;4764620;30;20044;-63
2022/05/28 13:46:37;;;;;;;5.95;3.30;;;;;;;;;;4768520;30;20042;-61
2022/05/28 13:49:07;;;;;;;8.05;3.78;;;;;;;;;;4767736;30;20075;-62
2022/05/28 13:51:34;;;;;;;7.55;3.47;;;;;;;;;;4853728;29;20486;-62
2022/05/28 13:54:07;;;;;;;5.70;3.30;;;;;;;;;;4860326;29;20076;-66
2022/05/28 13:56:33;;;;;;;4.85;3.22;;;;;;;;;;4861127;29;20312;-63
2022/05/28 13:59:00;;;;;;;6.45;3.30;;;;;;;;;;4861097;29;20513;-62
2022/05/28 14:01:31;;;;;;;6.60;3.33;;;;;;;;;;4861352;29;20037;-62
2022/05/28 14:04:08;;;;;;;5.22;3.05;;;;;;;;;;4860923;29;20033;-64
2022/05/28 14:06:36;;;;;;;6.68;2.70;;;;;;;;;;4861141;29;20053;-61
2022/05/28 14:09:03;;;;;;;4.38;3.00;;;;;;;;;;4861280;29;20060;-61
2022/05/28 14:11:37;;;;;;;6.47;3.15;;;;;;;;;;4860824;29;20057;-61
2022/05/28 14:14:05;;;;;;;4.45;2.60;;;;;;;;;;4861317;29;20064;-63
2022/05/28 14:16:38;;;;;;;5.40;2.88;;;;;;;;;;4861417;29;20029;-61
2022/05/28 14:19:05;;;;;;;4.38;2.42;;;;;;;;;;4860784;29;20088;-60
2022/05/28 14:21:34;;;;;;;4.05;2.58;;;;;;;;;;4860617;29;20038;-63
2022/05/28 14:24:03;;;;;;;2.88;1.80;;;;;;;;;;4860352;29;20391;-68
2022/05/28 14:26:29;;;;;;;2.90;2.10;;;;;;;;;;4860101;29;20038;-63
2022/05/28 14:28:56;;;;;;;4.65;2.35;;;;;;;;;;4860578;29;20144;-62
2022/05/28 14:31:22;;;;;;;4.35;2.45;;;;;;;;;;4860718;29;20037;-62
2022/05/28 14:33:51;;;;;;;6.10;2.00;;;;;;;;;;4860237;29;20025;-62
2022/05/28 14:36:35;;;;;;;3.90;1.98;;;;;;;;;;4860841;29;20033;-62
2022/05/28 14:39:14;;;;;;;5.82;1.95;;;;;;;;;;4860730;29;20080;-65
2022/05/28 14:41:45;;;;;;;4.28;2.30;;;;;;;;;;4860493;29;20084;-63
2022/05/28 14:44:18;;;;;;;3.83;1.90;;;;;;;;;;4860557;29;20444;-61
2022/05/28 14:46:46;;;;;;;5.43;2.30;;;;;;;;;;4860410;29;20614;-64
2022/05/28 14:49:21;;;;;;;4.78;2.15;;;;;;;;;;4860378;29;20041;-64
2022/05/28 14:51:47;;;;;;;4.75;1.60;;;;;;;;;;4862542;29;20040;-63
2022/05/28 14:54:40;;;;;;;3.30;1.67;;;;;;;;;;4868569;29;20085;-64
2022/05/28 14:57:06;;;;;;;;;;;;;;;;;;4774585;29;20070;-62
2022/05/28 14:59:42;;;;;;;2.38;1.77;;;;;;;;;;4775059;30;19914;-63
2022/05/28 15:02:11;;;;;;;3.80;1.65;;;;;;;;;;4776337;30;20512;-63
2022/05/28 15:04:37;;;;;;;4.07;1.85;;;;;;;;;;4773899;30;20036;-64
2022/05/28 15:07:06;;;;;;;4.00;2.10;;;;;;;;;;4775327;30;20047;-63
2022/05/28 15:09:50;;;;;;;5.80;1.90;;;;;;;;;;4775147;30;20024;-63
2022/05/28 15:12:18;;;;;;;4.82;2.15;;;;;;;;;;4769195;30;20043;-63
2022/05/28 15:14:44;;;;;;;4.55;2.08;;;;;;;;;;4770578;30;20117;-62
2022/05/28 15:17:12;;;;;;;7.10;2.10;;;;;;;;;;4784312;30;20137;-62
2022/05/28 15:19:38;;;;;;;5.50;2.30;;;;;;;;;;4773493;30;20374;-61
2022/05/28 15:22:18;;;;;;;7.03;2.72;;;;;;;;;;4770975;30;20120;-61
2022/05/28 15:24:45;;;;;;;6.70;2.80;;;;;;;;;;4766346;30;20569;-62
2022/05/28 15:27:11;;;;;;;6.88;2.83;;;;;;;;;;4765988;30;20048;-64
2022/05/28 15:29:38;;;;;;;5.53;2.40;;;;;;;;;;4766776;30;20036;-63
2022/05/28 15:32:05;;;;;;;7.32;2.40;;;;;;;;;;4766507;30;20043;-67
2022/05/28 15:34:31;;;;;;;7.78;1.80;;;;;;;;;;4841427;29;20045;-63
2022/05/28 15:39:42;;;;;;;3.08;1.80;;;;;;;;;;4877980;29;20132;-65
2022/05/28 15:42:09;;;;;;;6.30;2.08;;;;;;;;;;4878073;29;20064;-66
2022/05/28 15:44:35;;;;;;;2.83;1.83;;;;;;;;;;4878051;29;20708;-66
2022/05/28 15:47:01;;;;;;;4.72;2.35;;;;;;;;;;4878163;29;20179;-63
2022/05/28 15:49:27;;;;;;;8.00;2.10;;;;;;;;;;4878026;29;20029;-63
2022/05/28 15:51:53;;;;;;;4.68;2.00;;;;;;;;;;4877400;29;20025;-63
2022/05/28 15:54:20;;;;;;;3.35;1.80;;;;;;;;;;4877391;29;20041;-63
2022/05/28 15:56:46;;;;;;;3.75;1.83;;;;;;;;;;4877797;29;20033;-64
2022/05/28 15:59:14;;;;;;;4.80;1.90;;;;;;;;;;4877867;29;20073;-65
2022/05/28 16:01:41;;;;;;;5.40;2.60;;;;;;;;;;4877728;29;20494;-63
2022/05/28 16:04:08;;;;;;;4.95;2.40;;;;;;;;;;4877619;29;20037;-64
2022/05/28 16:06:34;;;;;;;3.65;1.90;;;;;;;;;;4877633;29;20048;-64
2022/05/28 16:09:00;;;;;;;3.20;1.70;;;;;;;;;;4877235;29;20029;-63
2022/05/28 16:11:32;;;;;;;4.63;2.08;;;;;;;;;;4877276;29;20051;-63
2022/05/28 16:14:01;;;;;;;3.67;1.92;;;;;;;;;;4877709;29;20025;-63
2022/05/28 16:16:27;;;;;;;4.95;1.70;;;;;;;;;;4877499;29;20037;-63
2022/05/28 16:18:54;;;;;;;5.75;2.00;;;;;;;;;;4877540;29;20101;-66
2022/05/28 16:21:21;;;;;;;4.10;1.95;;;;;;;;;;4876973;29;20820;-63
2022/05/28 16:23:47;;;;;;;4.07;2.05;;;;;;;;;;4877231;29;20053;-62
2022/05/28 16:26:16;;;;;;;6.47;2.20;;;;;;;;;;4877249;29;20048;-63
2022/05/28 16:28:44;;;;;;;4.68;2.00;;;;;;;;;;4877327;29;20045;-67
2022/05/28 16:31:11;;;;;;;4.57;2.00;;;;;;;;;;4877435;29;20478;-67
2022/05/28 16:33:37;;;;;;;4.22;2.08;;;;;;;;;;4877224;29;20077;-64
2022/05/28 16:36:03;;;;;;;5.05;2.30;;;;;;;;;;4877678;29;20033;-63
2022/05/28 16:38:30;;;;;;;8.98;2.72;;;;;;;;;;4877045;29;20044;-66
2022/05/28 16:40:56;;;;;;;3.63;2.40;;;;;;;;;;4877116;29;20032;-63
2022/05/28 16:43:22;;;;;;;5.60;2.30;;;;;;;;;;4877334;29;20036;-64
2022/05/28 16:45:49;;;;;;;5.40;2.63;;;;;;;;;;4877234;29;20029;-64
2022/05/28 16:48:15;;;;;;;6.13;2.92;;;;;;;;;;4860152;29;20490;-68
2022/05/28 16:50:42;;;;;;;9.45;3.60;;;;;;;;;;4876812;29;20108;-65
2022/05/28 16:53:08;;;;;;;10.48;3.83;;;;;;;;;;4876868;29;20045;-64
2022/05/28 16:55:34;;;;;;;10.18;5.30;;;;;;;;;;4877211;29;20045;-64
2022/05/28 16:58:01;;;;;;;13.77;6.78;;;;;;;;;;4876898;29;20112;-68
2022/05/28 17:00:30;;;;;;;8.93;5.55;;;;;;;;;;4877158;29;20061;-65
2022/05/28 17:02:56;;;;;;;12.25;7.18;;;;;;;;;;4876877;29;20503;-64
2022/05/28 17:05:22;;;;;;;18.65;10.65;;;;;;;;;;4876876;29;20022;-67
2022/05/28 17:07:48;;;;;;;14.27;8.80;;;;;;;;;;4876645;29;20033;-67
2022/05/28 17:10:14;;;;;;;10.80;6.47;;;;;;;;;;4876319;29;20021;-63
2022/05/28 17:12:41;;;;;;;23.50;15.82;;;;;;;;;;4876531;29;20039;-68
2022/05/28 17:15:08;;;;;;;29.40;19.10;;;;;;;;;;4877359;29;20040;-64
2022/05/28 17:17:34;;;;;;;15.80;10.95;;;;;;;;;;4876421;29;20041;-66
2022/05/28 17:20:04;;;;;;;8.98;5.15;;;;;;;;;;4877649;29;20029;-66
2022/05/28 17:22:30;;;;;;;10.40;5.18;;;;;;;;;;4880321;29;20350;-65
2022/05/28 17:24:56;;;;;;;8.07;3.90;;;;;;;;;;4880547;29;20029;-64
2022/05/28 17:27:23;;;;;;;7.47;3.85;;;;;;;;;;4880585;29;20120;-66
2022/05/28 17:29:49;;;;;;;7.05;3.90;;;;;;;;;;4880606;29;20121;-65
2022/05/28 17:32:18;;;;;;;6.47;3.88;;;;;;;;;;4880631;29;20021;-63
2022/05/28 17:34:44;;;;;;;7.45;3.55;;;;;;;;;;4880487;29;20041;-64
2022/05/28 17:37:13;;;;;;;8.32;3.42;;;;;;;;;;4880113;29;20068;-64
2022/05/28 17:39:39;;;;;;;8.90;4.90;;;;;;;;;;4880226;29;20033;-64
2022/05/28 17:42:05;;;;;;;7.85;3.72;;;;;;;;;;4880375;29;20040;-67
2022/05/28 17:44:32;;;;;;;6.75;3.95;;;;;;;;;;4880397;29;20033;-65
2022/05/28 17:46:58;;;;;;;11.20;4.03;;;;;;;;;;4880182;29;20065;-64
2022/05/28 17:49:24;;;;;;;21.05;13.05;;;;;;;;;;4880193;29;20470;-65
2022/05/28 17:51:50;;;;;;;11.02;6.35;;;;;;;;;;4879426;29;20060;-65
2022/05/28 17:54:17;;;;;;;17.92;10.00;;;;;;;;;;4867453;29;20049;-63
2022/05/28 17:56:43;;;;;;;7.95;4.20;;;;;;;;;;4861288;29;20051;-64
2022/05/28 17:59:09;;;;;;;9.15;4.30;;;;;;;;;;4861090;29;20434;-65
2022/05/28 18:01:36;;;;;;;8.30;4.88;;;;;;;;;;4861441;29;20026;-64
2022/05/28 18:04:03;;;;;;;13.75;5.90;;;;;;;;;;4861160;29;20112;-65
2022/05/28 18:06:29;;;;;;;9.18;4.82;;;;;;;;;;4860757;29;20029;-65
2022/05/28 18:08:55;;;;;;;7.65;4.00;;;;;;;;;;4861042;29;20032;-65
2022/05/28 18:11:21;;;;;;;6.68;4.00;;;;;;;;;;4861127;29;20037;-64
2022/05/28 18:13:49;;;;;;;9.40;5.05;;;;;;;;;;4861354;29;20025;-66
2022/05/28 18:16:18;;;;;;;7.88;4.88;;;;;;;;;;4860900;29;20041;-66
2022/05/28 18:18:44;;;;;;;8.73;4.45;;;;;;;;;;4860830;29;20132;-65
2022/05/28 18:21:14;;;;;;;7.38;4.00;;;;;;;;;;4861299;29;20093;-65
2022/05/28 18:23:40;;;;;;;10.63;5.22;;;;;;;;;;4861120;29;20030;-64
2022/05/28 18:26:08;;;;;;;9.63;4.95;;;;;;;;;;4860775;29;20041;-64
2022/05/28 18:28:34;;;;;;;8.68;4.82;;;;;;;;;;4860865;29;20081;-63
2022/05/28 18:31:00;;;;;;;6.68;3.25;;;;;;;;;;4860854;29;20124;-62
2022/05/28 18:33:26;;;;;;;6.57;3.33;;;;;;;;;;4867476;29;20052;-65
2022/05/28 18:35:53;;;;;;;7.15;3.75;;;;;;;;;;4870365;29;20037;-62
2022/05/28 18:38:27;;;;;;;8.60;3.22;;;;;;;;;;4869686;29;20037;-63
2022/05/28 18:40:54;;;;;;;7.63;3.10;;;;;;;;;;4869201;29;20040;-68
2022/05/28 18:43:20;;;;;;;7.60;3.08;;;;;;;;;;4869289;29;20116;-61
2022/05/28 18:45:46;;;;;;;7.47;3.33;;;;;;;;;;4870407;29;20468;-64
2022/05/28 18:48:14;;;;;;;4.47;2.33;;;;;;;;;;4866700;29;20037;-70
2022/05/28 18:50:41;;;;;;;6.68;2.30;;;;;;;;;;4875732;29;20032;-64
2022/05/28 18:55:53;;;;;;;5.63;2.90;;;;;;;;;;4869362;29;20577;-63
2022/05/28 18:58:19;;;;;;;7.38;2.90;;;;;;;;;;4864067;29;20049;-62
2022/05/28 19:00:45;;;;;;;19.15;10.00;;;;;;;;;;4860182;29;20033;-62
2022/05/28 19:03:14;;;;;;;10.30;5.82;;;;;;;;;;4861874;29;20025;-63
2022/05/28 19:05:41;;;;;;;14.82;7.30;;;;;;;;;;4868215;29;20053;-60
2022/05/28 19:08:09;;;;;;;12.02;6.60;;;;;;;;;;4867619;29;20030;-61
2022/05/28 19:10:36;;;;;;;11.40;5.70;;;;;;;;;;4875251;29;20636;-61
2022/05/28 19:13:03;;;;;;;9.43;5.78;;;;;;;;;;4868528;29;20079;-63
2022/05/28 19:15:30;;;;;;;9.73;5.80;;;;;;;;;;4844461;29;20422;-62
2022/05/28 19:17:59;;;;;;;12.20;5.65;;;;;;;;;;4872928;29;20055;-62
2022/05/28 19:20:25;;;;;;;20.13;8.38;;;;;;;;;;4865765;29;20036;-62
2022/05/28 19:22:52;;;;;;;22.67;14.13;;;;;;;;;;4848068;29;20055;-65
2022/05/28 19:28:05;;;;;;;23.42;14.50;;;;;;;;;;4862546;29;20032;-64
2022/05/28 19:30:32;;;;;;;7.40;3.92;;;;;;;;;;4868348;29;20036;-65
2022/05/28 19:32:59;;;;;;;7.57;3.65;;;;;;;;;;4869164;29;20029;-63
2022/05/28 19:35:25;;;;;;;10.68;4.47;;;;;;;;;;4844133;29;20431;-63
2022/05/28 19:37:51;;;;;;;10.63;4.63;;;;;;;;;;4861836;29;20392;-62
2022/05/28 19:40:19;;;;;;;9.23;4.57;;;;;;;;;;4869915;29;20074;-62
2022/05/28 19:42:51;;;;;;;9.32;4.90;;;;;;;;;;4861088;29;20032;-64
2022/05/28 19:45:19;;;;;;;9.45;4.30;;;;;;;;;;4866852;29;20029;-64
2022/05/28 19:47:46;;;;;;;7.82;4.40;;;;;;;;;;4866103;29;20041;-64
2022/05/28 19:50:12;;;;;;;7.10;4.60;;;;;;;;;;4867201;29;20031;-65
2022/05/28 19:52:38;;;;;;;6.25;4.82;;;;;;;;;;4864743;29;20490;-64
2022/05/28 19:55:04;;;;;;;10.05;5.75;;;;;;;;;;4868205;29;20061;-64
2022/05/28 19:57:31;;;;;;;10.27;5.45;;;;;;;;;;4865576;29;20062;-65
2022/05/28 19:59:57;;;;;;;14.48;8.63;;;;;;;;;;4869401;29;20044;-64
2022/05/28 20:02:27;;;;;;;9.23;5.90;;;;;;;;;;4865286;29;20100;-64
2022/05/28 20:04:53;;;;;;;13.15;6.05;;;;;;;;;;4862352;29;20030;-64
2022/05/28 20:07:20;;;;;;;15.07;8.88;;;;;;;;;;4866693;29;20017;-64
2022/05/28 20:09:46;;;;;;;21.80;13.18;;;;;;;;;;4865708;29;20867;-64
2022/05/28 20:12:12;;;;;;;17.70;9.32;;;;;;;;;;4870027;29;20062;-64
2022/05/28 20:14:53;;;;;;;9.27;5.70;;;;;;;;;;4866627;29;20029;-63
2022/05/28 20:20:24;;;;;;;7.57;5.95;;;;;;;;;;4866425;29;20104;-65
2022/05/28 20:22:53;;;;;;;8.95;6.40;;;;;;;;;;4868633;29;20025;-64
2022/05/28 20:28:06;;;;;;;13.68;9.00;;;;;;;;;;4865750;29;20077;-64
2022/05/28 20:30:35;;;;;;;11.48;7.60;;;;;;;;;;4868285;29;20029;-64
2022/05/28 20:33:01;;;;;;;11.85;6.63;;;;;;;;;;4866566;29;20342;-64
2022/05/28 20:35:28;;;;;;;11.13;6.35;;;;;;;;;;4867810;29;20048;-64
2022/05/28 20:38:01;;;;;;;9.63;6.07;;;;;;;;;;4866793;29;20033;-64
2022/05/28 20:40:36;;;;;;;8.75;5.63;;;;;;;;;;4864960;29;20029;-64
2022/05/28 20:43:07;;;;;;;7.50;5.47;;;;;;;;;;4864606;29;20044;-63
2022/05/28 20:45:37;;;;;;;23.15;5.55;;;;;;;;;;4865628;29;20043;-66
2022/05/28 20:48:19;;;;;;;7.57;4.70;;;;;;;;;;4867372;29;20040;-66
2022/05/28 20:51:03;;;;;;;;;;;;;;;;;;4864714;29;20068;-66
2022/05/28 20:53:31;;;;;;;8.07;4.25;;;;;;;;;;4871483;29;19915;-70
2022/05/28 20:56:01;;;;;;;9.82;4.90;;;;;;;;;;4860347;29;20111;-65
2022/05/28 20:58:37;;;;;;;7.50;4.65;;;;;;;;;;4866528;29;20086;-64
2022/05/28 21:01:06;;;;;;;9.55;4.95;;;;;;;;;;4868511;29;20044;-64
2022/05/28 21:03:38;;;;;;;8.68;5.25;;;;;;;;;;4858667;29;20033;-64
2022/05/28 21:06:12;;;;;;;9.05;4.80;;;;;;;;;;4868658;29;20044;-64
2022/05/28 21:08:40;;;;;;;6.40;4.65;;;;;;;;;;4862219;29;20517;-63
2022/05/28 21:11:06;;;;;;;10.63;5.10;;;;;;;;;;4866263;29;20037;-64
2022/05/28 21:13:32;;;;;;;11.38;5.07;;;;;;;;;;4865707;29;20103;-64